createdAt,value
2023-05-01T00:00:06.013Z,99813.59
2023-05-01T00:01:10.250Z,99819.64
2023-05-01T00:02:18.501Z,99821.69
2023-05-01T00:03:22.337Z,99821.26
2023-05-01T00:04:27.723Z,99823.15
2023-05-01T00:05:33.147Z,99824.00
2023-05-01T00:06:36.619Z,99815.20
2023-05-01T00:07:39.924Z,99821.26
2023-05-01T00:08:42.383Z,99826.45
2023-05-01T00:09:47.454Z,99825.60
2023-05-01T00:10:51.093Z,99823.68
2023-05-01T00:11:57.558Z,99816.25
2023-05-01T00:13:00.789Z,99814.36
2023-05-01T00:14:05.479Z,99814.55
2023-05-01T00:15:10.829Z,99816.72
2023-05-01T00:16:13.783Z,99819.09
2023-05-01T00:17:17.224Z,99817.70
2023-05-01T00:18:19.474Z,99815.05
2023-05-01T00:19:22.984Z,99818.83
2023-05-01T00:20:27.632Z,99826.01
2023-05-01T00:21:30.824Z,99816.00
2023-05-01T00:22:34.752Z,99824.66
2023-05-01T00:23:37.520Z,99822.33
2023-05-01T00:24:42.279Z,99824.88
2023-05-01T00:25:45.072Z,99827.99
2023-05-01T00:26:47.512Z,99821.48
2023-05-01T00:27:52.256Z,99813.55
2023-05-01T00:28:55.456Z,99818.83
2023-05-01T00:29:58.967Z,99816.84
2023-05-01T00:31:02.686Z,99818.83
2023-05-01T00:32:06.423Z,99818.36
2023-05-01T00:33:09.637Z,99816.38
2023-05-01T00:34:14.769Z,99822.27
2023-05-01T00:35:18.064Z,99817.70
2023-05-01T00:36:21.880Z,99818.77
2023-05-01T00:37:29.945Z,99820.27
2023-05-01T00:38:37.203Z,99822.81
2023-05-01T00:39:39.918Z,99819.23
2023-05-01T00:40:46.437Z,99824.61
2023-05-01T00:41:49.631Z,99820.77
2023-05-01T00:42:52.825Z,99817.73
2023-05-01T00:43:56.151Z,99830.00
2023-05-01T00:44:59.634Z,99822.25
2023-05-01T00:46:03.172Z,99826.69
2023-05-01T00:47:07.380Z,99824.53
2023-05-01T00:48:11.474Z,99829.06
2023-05-01T00:49:15.768Z,99829.24
2023-05-01T00:50:20.404Z,99831.03
2023-05-01T00:51:24.433Z,99828.39
2023-05-01T00:52:28.452Z,99825.75
2023-05-01T00:53:31.739Z,99827.55
2023-05-01T00:54:35.253Z,99824.90
2023-05-01T00:55:40.945Z,99825.84
2023-05-01T00:56:46.965Z,99830.27
2023-05-01T00:57:51.112Z,99826.59
2023-05-01T00:58:54.727Z,99824.72
2023-05-01T00:59:58.379Z,99830.00
2023-05-01T01:01:02.788Z,99826.33
2023-05-01T01:02:06.150Z,99824.63
2023-05-01T01:03:11.680Z,99827.18
2023-05-01T01:04:16.936Z,99830.00
2023-05-01T01:05:21.822Z,99825.84
2023-05-01T01:06:31.922Z,99823.78
2023-05-01T01:07:39.668Z,99827.36
2023-05-01T01:08:49.088Z,99830.95
2023-05-01T01:09:58.017Z,99830.19
2023-05-01T01:11:09.603Z,99828.39
2023-05-01T01:12:31.008Z,99832.73
2023-05-01T01:13:37.184Z,99835.77
2023-05-01T01:14:43.570Z,99832.37
2023-05-01T01:15:48.577Z,99834.06
2023-05-01T01:17:00.014Z,99837.38
2023-05-01T01:18:07.451Z,99833.03
2023-05-01T01:19:15.621Z,99834.83
2023-05-01T01:20:20.892Z,99834.06
2023-05-01T01:21:26.380Z,99838.68
2023-05-01T01:22:33.029Z,99832.81
2023-05-01T01:23:44.667Z,99841.59
2023-05-01T01:24:51.918Z,99834.25
2023-05-01T01:26:00.761Z,99840.56
2023-05-01T01:27:14.724Z,99841.77
2023-05-01T01:28:32.644Z,99844.53
2023-05-01T01:29:56.420Z,99845.08
2023-05-01T01:31:19.258Z,99841.30
2023-05-01T01:32:43.061Z,99842.74
2023-05-01T01:34:04.989Z,99843.38
2023-05-01T01:35:11.526Z,99844.05
2023-05-01T01:36:16.908Z,99847.81
2023-05-01T01:37:25.036Z,99841.77
2023-05-01T01:38:31.540Z,99853.19
2023-05-01T01:39:45.909Z,99859.80
2023-05-01T01:40:59.339Z,99857.22
2023-05-01T01:42:05.557Z,99867.09
2023-05-01T01:43:10.641Z,99859.86
2023-05-01T01:44:16.011Z,99859.86
2023-05-01T01:45:25.699Z,99855.08
2023-05-01T01:46:30.261Z,99859.62
2023-05-01T01:47:34.957Z,99856.03
2023-05-01T01:48:39.161Z,99859.53
2023-05-01T01:49:45.680Z,99863.75
2023-05-01T01:50:49.072Z,99865.02
2023-05-01T01:51:53.292Z,99850.96
2023-05-01T01:52:59.152Z,99864.17
2023-05-01T01:54:03.657Z,99861.71
2023-05-01T01:55:12.787Z,99863.71
2023-05-01T01:56:21.340Z,99864.16
2023-05-01T01:57:27.217Z,99858.22
2023-05-01T01:58:30.720Z,99858.19
2023-05-01T01:59:35.530Z,99846.95
2023-05-01T02:00:42.532Z,99852.80
2023-05-01T02:01:46.931Z,99849.94
2023-05-01T02:02:50.421Z,99845.95
2023-05-01T02:03:54.485Z,99851.81
2023-05-01T02:05:02.601Z,99850.55
2023-05-01T02:06:08.029Z,99848.36
2023-05-01T02:07:12.208Z,99845.71
2023-05-01T02:08:17.842Z,99852.05
2023-05-01T02:09:22.260Z,99858.75
2023-05-01T02:10:28.457Z,99850.81
2023-05-01T02:11:32.521Z,99848.03
2023-05-01T02:12:37.548Z,99852.09
2023-05-01T02:13:41.618Z,99858.89
2023-05-01T02:14:45.532Z,99855.29
2023-05-01T02:15:49.282Z,99850.52
2023-05-01T02:16:54.718Z,99853.92
2023-05-01T02:17:58.702Z,99852.58
2023-05-01T02:19:05.084Z,99851.09
2023-05-01T02:20:11.413Z,99858.39
2023-05-01T02:21:16.302Z,99869.31
2023-05-01T02:22:21.692Z,99861.66
2023-05-01T02:23:29.066Z,99865.88
2023-05-01T02:24:34.266Z,99865.55
2023-05-01T02:25:41.146Z,99861.96
2023-05-01T02:26:45.186Z,99874.88
2023-05-01T02:27:51.420Z,99877.06
2023-05-01T02:28:56.330Z,99879.47
2023-05-01T02:29:59.785Z,99880.27
2023-05-01T02:31:03.812Z,99880.55
2023-05-01T02:32:07.316Z,99876.49
2023-05-01T02:33:10.449Z,99878.41
2023-05-01T02:34:16.712Z,99893.44
2023-05-01T02:35:19.858Z,99886.64
2023-05-01T02:36:23.322Z,99882.54
2023-05-01T02:37:26.937Z,99891.42
2023-05-01T02:38:30.958Z,99893.63
2023-05-01T02:39:35.293Z,99892.49
2023-05-01T02:40:38.510Z,99904.27
2023-05-01T02:41:42.299Z,99884.14
2023-05-01T02:42:45.840Z,99901.47
2023-05-01T02:43:52.029Z,99901.72
2023-05-01T02:44:58.880Z,99899.58
2023-05-01T02:46:06.462Z,99899.86
2023-05-01T02:47:12.849Z,99896.63
2023-05-01T02:48:18.075Z,99896.14
2023-05-01T02:49:21.353Z,99894.55
2023-05-01T02:50:25.586Z,99890.00
2023-05-01T02:51:29.930Z,99889.59
2023-05-01T02:52:33.661Z,99894.34
2023-05-01T02:53:42.982Z,99900.02
2023-05-01T02:54:49.720Z,99902.10
2023-05-01T02:55:53.463Z,99890.25
2023-05-01T02:57:02.104Z,99893.97
2023-05-01T02:58:08.818Z,99898.47
2023-05-01T02:59:12.386Z,99905.31
2023-05-01T03:00:15.212Z,99901.63
2023-05-01T03:01:20.352Z,99901.82
2023-05-01T03:02:23.896Z,99907.62
2023-05-01T03:03:28.653Z,99910.04
2023-05-01T03:04:32.414Z,99902.67
2023-05-01T03:05:39.303Z,99907.11
2023-05-01T03:06:42.882Z,99912.56
2023-05-01T03:07:46.907Z,99916.81
2023-05-01T03:08:50.567Z,99914.27
2023-05-01T03:09:54.112Z,99906.12
2023-05-01T03:10:57.922Z,99910.89
2023-05-01T03:12:02.674Z,99904.89
2023-05-01T03:13:06.049Z,99911.19
2023-05-01T03:14:09.554Z,99908.83
2023-05-01T03:15:13.703Z,99907.30
2023-05-01T03:16:16.997Z,99910.47
2023-05-01T03:17:22.800Z,99910.57
2023-05-01T03:18:26.846Z,99914.48
2023-05-01T03:19:31.251Z,99906.78
2023-05-01T03:20:34.877Z,99907.50
2023-05-01T03:21:38.814Z,99918.35
2023-05-01T03:22:42.708Z,99911.77
2023-05-01T03:23:45.803Z,99918.25
2023-05-01T03:24:49.180Z,99925.84
2023-05-01T03:25:54.578Z,99925.37
2023-05-01T03:26:59.775Z,99923.55
2023-05-01T03:28:04.932Z,99921.30
2023-05-01T03:29:11.828Z,99929.55
2023-05-01T03:30:15.272Z,99937.09
2023-05-01T03:31:18.683Z,99936.64
2023-05-01T03:32:23.224Z,99934.65
2023-05-01T03:33:26.214Z,99939.55
2023-05-01T03:34:29.193Z,99938.83
2023-05-01T03:35:33.657Z,99936.61
2023-05-01T03:36:37.803Z,99935.89
2023-05-01T03:37:41.489Z,99935.62
2023-05-01T03:38:46.815Z,99941.30
2023-05-01T03:40:00.460Z,99942.89
2023-05-01T03:41:22.482Z,99942.08
2023-05-01T03:42:42.397Z,99951.02
2023-05-01T03:43:47.682Z,99939.55
2023-05-01T03:44:53.695Z,99948.22
2023-05-01T03:45:57.874Z,99944.22
2023-05-01T03:47:01.428Z,99943.38
2023-05-01T03:48:05.492Z,99946.61
2023-05-01T03:49:09.807Z,99953.52
2023-05-01T03:50:15.505Z,99960.11
2023-05-01T03:51:19.849Z,99949.20
2023-05-01T03:52:25.009Z,99956.13
2023-05-01T03:53:28.097Z,99958.36
2023-05-01T03:54:32.236Z,99957.45
2023-05-01T03:55:37.730Z,99961.67
2023-05-01T03:56:41.554Z,99957.78
2023-05-01T03:57:47.526Z,99960.34
2023-05-01T03:58:54.918Z,99951.48
2023-05-01T03:59:58.497Z,99952.14
2023-05-01T04:01:02.890Z,99958.09
2023-05-01T04:02:06.744Z,99950.06
2023-05-01T04:03:11.491Z,99964.16
2023-05-01T04:04:16.431Z,99957.95
2023-05-01T04:05:23.990Z,99961.64
2023-05-01T04:06:29.136Z,99965.47
2023-05-01T04:07:33.909Z,99968.66
2023-05-01T04:08:38.057Z,99962.70
2023-05-01T04:09:43.140Z,99968.25
2023-05-01T04:10:49.689Z,99973.22
2023-05-01T04:11:53.300Z,99966.95
2023-05-01T04:12:56.790Z,99969.39
2023-05-01T04:14:00.206Z,99977.42
2023-05-01T04:15:04.324Z,99972.82
2023-05-01T04:16:08.723Z,99976.85
2023-05-01T04:17:12.155Z,99972.82
2023-05-01T04:18:16.518Z,99975.83
2023-05-01T04:19:20.334Z,99974.52
2023-05-01T04:20:25.386Z,99973.40
2023-05-01T04:21:28.898Z,99974.08
2023-05-01T04:22:32.249Z,99981.09
2023-05-01T04:23:34.661Z,99981.45
2023-05-01T04:24:38.685Z,99981.20
2023-05-01T04:25:41.157Z,99978.66
2023-05-01T04:26:46.552Z,99978.17
2023-05-01T04:27:51.282Z,99989.17
2023-05-01T04:28:54.364Z,99997.64
2023-05-01T04:29:58.732Z,99992.47
2023-05-01T04:31:02.882Z,99991.07
2023-05-01T04:32:05.723Z,99988.63
2023-05-01T04:33:10.125Z,99991.80
2023-05-01T04:34:13.178Z,99993.04
2023-05-01T04:35:16.238Z,99987.01
2023-05-01T04:36:19.220Z,99995.22
2023-05-01T04:37:23.769Z,99998.81
2023-05-01T04:38:27.583Z,100008.90
2023-05-01T04:39:31.473Z,100000.92
2023-05-01T04:40:39.498Z,100001.14
2023-05-01T04:41:43.108Z,100008.22
2023-05-01T04:42:49.564Z,100000.64
2023-05-01T04:43:53.980Z,100009.02
2023-05-01T04:44:58.646Z,100014.98
2023-05-01T04:46:03.098Z,100019.87
2023-05-01T04:47:05.871Z,100023.39
2023-05-01T04:48:12.223Z,100026.45
2023-05-01T04:49:15.368Z,100028.84
2023-05-01T04:50:19.485Z,100034.53
2023-05-01T04:51:23.560Z,100030.84
2023-05-01T04:52:27.565Z,100014.65
2023-05-01T04:53:35.895Z,100028.31
2023-05-01T04:54:38.641Z,100041.07
2023-05-01T04:55:41.307Z,100045.07
2023-05-01T04:56:46.490Z,100049.88
2023-05-01T04:57:50.102Z,100050.54
2023-05-01T04:58:53.388Z,100057.37
2023-05-01T05:00:00.940Z,100069.97
2023-05-01T05:02:12.490Z,100061.73
2023-05-01T05:03:17.845Z,100066.95
2023-05-01T05:04:21.586Z,100076.30
2023-05-01T05:05:26.037Z,100074.70
2023-05-01T05:06:29.803Z,100079.41
2023-05-01T05:07:36.457Z,100091.06
2023-05-01T05:08:59.988Z,100089.11
2023-05-01T05:10:04.223Z,100098.16
2023-05-01T05:11:07.918Z,100099.18
2023-05-01T05:12:24.244Z,100091.28
2023-05-01T05:13:28.026Z,100089.83
2023-05-01T05:14:34.083Z,100090.82
2023-05-01T05:15:37.431Z,100095.10
2023-05-01T05:16:42.811Z,100099.22
2023-05-01T05:17:48.056Z,100102.55
2023-05-01T05:18:51.571Z,100095.53
2023-05-01T05:19:55.434Z,100102.28
2023-05-01T05:20:58.121Z,100118.67
2023-05-01T05:22:05.784Z,100107.78
2023-05-01T05:23:10.986Z,100107.30
2023-05-01T05:24:14.911Z,100121.61
2023-05-01T05:25:19.358Z,100120.72
2023-05-01T05:26:25.472Z,100121.46
2023-05-01T05:27:30.454Z,100124.83
2023-05-01T05:28:33.757Z,100127.61
2023-05-01T05:29:37.227Z,100131.21
2023-05-01T05:30:44.388Z,100140.84
2023-05-01T05:31:49.778Z,100150.73
2023-05-01T05:32:53.899Z,100153.84
2023-05-01T05:33:58.378Z,100157.03
2023-05-01T05:35:01.743Z,100146.04
2023-05-01T05:36:05.051Z,100143.75
2023-05-01T05:37:10.547Z,100150.33
2023-05-01T05:38:16.337Z,100144.32
2023-05-01T05:39:24.356Z,100151.97
2023-05-01T05:40:27.671Z,100155.94
2023-05-01T05:41:32.102Z,100142.52
2023-05-01T05:42:39.761Z,100157.70
2023-05-01T05:43:43.994Z,100146.89
2023-05-01T05:44:47.290Z,100156.23
2023-05-01T05:45:50.825Z,100166.58
2023-05-01T05:46:55.792Z,100174.13
2023-05-01T05:48:01.212Z,100163.20
2023-05-01T05:49:05.162Z,100158.91
2023-05-01T05:50:10.355Z,100159.41
2023-05-01T05:51:13.771Z,100164.64
2023-05-01T05:52:17.685Z,100164.06
2023-05-01T05:53:24.273Z,100163.39
2023-05-01T05:54:26.144Z,100167.48
2023-05-01T05:55:31.961Z,100158.00
2023-05-01T05:56:40.196Z,100169.23
2023-05-01T05:57:44.451Z,100181.42
2023-05-01T05:58:53.536Z,100180.55
2023-05-01T05:59:58.145Z,100179.59
2023-05-01T06:01:01.068Z,100187.25
2023-05-01T06:02:05.491Z,100171.70
2023-05-01T06:03:11.493Z,100178.03
2023-05-01T06:04:18.135Z,100175.35
2023-05-01T06:05:21.703Z,100175.94
2023-05-01T06:06:25.245Z,100175.73
2023-05-01T06:07:29.632Z,100175.05
2023-05-01T06:08:32.092Z,100181.08
2023-05-01T06:09:36.214Z,100187.70
2023-05-01T06:10:43.716Z,100191.07
2023-05-01T06:11:47.297Z,100184.00
2023-05-01T06:13:07.023Z,100199.40
2023-05-01T06:14:00.503Z,100195.02
2023-05-01T06:15:04.111Z,100207.16
2023-05-01T06:16:13.340Z,100204.83
2023-05-01T06:17:16.843Z,100215.47
2023-05-01T06:18:21.258Z,100213.17
2023-05-01T06:19:28.162Z,100234.26
2023-05-01T06:20:33.207Z,100227.09
2023-05-01T06:21:36.910Z,100208.84
2023-05-01T06:22:42.133Z,100221.47
2023-05-01T06:23:47.228Z,100231.70
2023-05-01T06:24:58.648Z,100223.08
2023-05-01T06:26:02.955Z,100226.45
2023-05-01T06:27:06.986Z,100228.41
2023-05-01T06:28:10.617Z,100240.19
2023-05-01T06:29:15.021Z,100239.77
2023-05-01T06:30:20.418Z,100245.55
2023-05-01T06:31:22.937Z,100251.59
2023-05-01T06:32:30.664Z,100255.65
2023-05-01T06:33:33.962Z,100250.73
2023-05-01T06:34:39.346Z,100256.12
2023-05-01T06:35:41.702Z,100255.02
2023-05-01T06:36:45.528Z,100260.08
2023-05-01T06:37:47.888Z,100262.12
2023-05-01T06:38:51.179Z,100266.25
2023-05-01T06:39:55.031Z,100269.84
2023-05-01T06:40:58.390Z,100263.02
2023-05-01T06:42:03.872Z,100265.44
2023-05-01T06:43:10.023Z,100284.74
2023-05-01T06:44:13.501Z,100283.25
2023-05-01T06:45:16.064Z,100275.36
2023-05-01T06:46:22.222Z,100290.63
2023-05-01T06:47:25.770Z,100294.99
2023-05-01T06:48:29.079Z,100293.74
2023-05-01T06:49:32.904Z,100298.27
2023-05-01T06:50:38.038Z,100287.08
2023-05-01T06:51:41.266Z,100294.26
2023-05-01T06:52:45.713Z,100296.06
2023-05-01T06:53:48.284Z,100292.89
2023-05-01T06:54:51.788Z,100296.67
2023-05-01T06:55:54.455Z,100304.44
2023-05-01T06:56:57.211Z,100307.51
2023-05-01T06:58:02.631Z,100310.63
2023-05-01T06:59:05.690Z,100304.32
2023-05-01T07:00:10.549Z,100310.67
2023-05-01T07:01:13.874Z,100307.85
2023-05-01T07:02:18.078Z,100306.09
2023-05-01T07:03:21.743Z,100314.78
2023-05-01T07:04:26.250Z,100318.81
2023-05-01T07:05:30.596Z,100319.44
2023-05-01T07:06:34.253Z,100312.23
2023-05-01T07:07:38.996Z,100324.06
2023-05-01T07:08:43.506Z,100328.16
2023-05-01T07:09:47.131Z,100317.31
2023-05-01T07:10:50.845Z,100326.53
2023-05-01T07:11:54.135Z,100325.37
2023-05-01T07:12:58.306Z,100332.45
2023-05-01T07:14:01.533Z,100337.89
2023-05-01T07:15:11.769Z,100340.78
2023-05-01T07:16:15.827Z,100344.50
2023-05-01T07:17:18.350Z,100338.11
2023-05-01T07:18:21.647Z,100345.14
2023-05-01T07:19:24.808Z,100350.74
2023-05-01T07:20:28.441Z,100343.16
2023-05-01T07:21:32.830Z,100350.09
2023-05-01T07:22:35.962Z,100354.69
2023-05-01T07:23:40.559Z,100357.36
2023-05-01T07:24:45.073Z,100359.88
2023-05-01T07:25:48.476Z,100367.34
2023-05-01T07:26:51.346Z,100361.89
2023-05-01T07:27:55.476Z,100361.95
2023-05-01T07:28:58.036Z,100370.67
2023-05-01T07:30:03.032Z,100367.21
2023-05-01T07:31:07.690Z,100362.81
2023-05-01T07:33:16.338Z,100360.78
2023-05-01T07:34:19.786Z,100358.38
2023-05-01T07:35:22.216Z,100377.84
2023-05-01T07:36:25.391Z,100373.75
2023-05-01T07:37:30.763Z,100382.63
2023-05-01T07:38:33.872Z,100381.89
2023-05-01T07:39:38.933Z,100378.33
2023-05-01T07:40:43.388Z,100389.34
2023-05-01T07:41:46.500Z,100381.23
2023-05-01T07:42:53.827Z,100378.42
2023-05-01T07:43:58.500Z,100380.04
2023-05-01T07:45:02.946Z,100377.34
2023-05-01T07:46:07.692Z,100388.63
2023-05-01T07:47:11.853Z,100382.67
2023-05-01T07:48:15.518Z,100373.51
2023-05-01T07:49:18.211Z,100387.54
2023-05-01T07:50:23.073Z,100386.34
2023-05-01T07:51:27.554Z,100383.89
2023-05-01T07:52:31.124Z,100378.52
2023-05-01T07:53:35.253Z,100376.84
2023-05-01T07:54:38.576Z,100377.97
2023-05-01T07:55:43.736Z,100391.58
2023-05-01T07:56:47.097Z,100385.11
2023-05-01T07:57:52.126Z,100385.09
2023-05-01T07:58:55.431Z,100377.11
2023-05-01T08:00:00.098Z,100379.30
2023-05-01T08:01:04.962Z,100391.00
2023-05-01T08:02:08.581Z,100386.14
2023-05-01T08:03:14.673Z,100389.02
2023-05-01T08:04:19.347Z,100389.14
2023-05-01T08:05:22.622Z,100380.84
2023-05-01T08:06:26.354Z,100373.24
2023-05-01T08:07:28.661Z,100377.85
2023-05-01T08:08:32.891Z,100382.38
2023-05-01T08:09:36.181Z,100392.41
2023-05-01T08:10:39.072Z,100381.63
2023-05-01T08:11:42.254Z,100384.72
2023-05-01T08:12:47.444Z,100380.02
2023-05-01T08:13:51.007Z,100384.55
2023-05-01T08:14:54.452Z,100395.50
2023-05-01T08:15:59.875Z,100393.23
2023-05-01T08:17:02.309Z,100393.65
2023-05-01T08:18:08.542Z,100385.23
2023-05-01T08:19:12.128Z,100389.95
2023-05-01T08:20:15.429Z,100379.02
2023-05-01T08:21:19.347Z,100392.38
2023-05-01T08:22:25.259Z,100395.55
2023-05-01T08:23:29.447Z,100385.12
2023-05-01T08:24:32.614Z,100385.97
2023-05-01T08:25:35.969Z,100387.95
2023-05-01T08:26:40.363Z,100387.56
2023-05-01T08:27:42.669Z,100391.57
2023-05-01T08:28:44.855Z,100390.47
2023-05-01T08:29:48.257Z,100395.73
2023-05-01T08:30:51.000Z,100402.27
2023-05-01T08:31:54.003Z,100393.95
2023-05-01T08:32:56.272Z,100415.91
2023-05-01T08:34:02.976Z,100400.14
2023-05-01T08:35:07.871Z,100394.27
2023-05-01T08:36:14.567Z,100395.67
2023-05-01T08:37:19.442Z,100384.91
2023-05-01T08:38:23.376Z,100385.39
2023-05-01T08:39:26.142Z,100397.14
2023-05-01T08:40:33.498Z,100399.68
2023-05-01T08:41:38.374Z,100397.31
2023-05-01T08:42:42.095Z,100406.91
2023-05-01T08:43:44.759Z,100416.22
2023-05-01T08:44:48.862Z,100408.59
2023-05-01T08:45:55.762Z,100405.59
2023-05-01T08:47:18.549Z,100403.18
2023-05-01T08:48:23.202Z,100417.23
2023-05-01T08:49:28.503Z,100416.05
2023-05-01T08:50:31.774Z,100417.69
2023-05-01T08:51:38.071Z,100417.75
2023-05-01T08:52:42.873Z,100420.52
2023-05-01T08:53:47.527Z,100406.66
2023-05-01T08:54:52.284Z,100396.09
2023-05-01T08:55:56.101Z,100415.28
2023-05-01T08:57:06.079Z,100412.63
2023-05-01T08:58:10.188Z,100416.91
2023-05-01T08:59:16.079Z,100419.23
2023-05-01T09:00:21.914Z,100416.91
2023-05-01T09:01:25.623Z,100421.30
2023-05-01T09:02:30.309Z,100427.66
2023-05-01T09:03:34.110Z,100425.38
2023-05-01T09:04:40.974Z,100414.33
2023-05-01T09:05:45.506Z,100415.70
2023-05-01T09:06:48.644Z,100421.35
2023-05-01T09:07:52.301Z,100412.11
2023-05-01T09:08:55.697Z,100419.95
2023-05-01T09:09:59.006Z,100435.13
2023-05-01T09:11:03.932Z,100424.81
2023-05-01T09:12:11.869Z,100428.88
2023-05-01T09:13:15.277Z,100423.81
2023-05-01T09:14:18.497Z,100424.63
2023-05-01T09:15:22.189Z,100421.95
2023-05-01T09:16:25.590Z,100419.67
2023-05-01T09:17:32.720Z,100411.09
2023-05-01T09:18:36.470Z,100428.19
2023-05-01T09:19:42.579Z,100427.45
2023-05-01T09:20:46.054Z,100429.09
2023-05-01T09:21:52.478Z,100420.66
2023-05-01T09:22:57.278Z,100425.20
2023-05-01T09:24:00.476Z,100413.50
2023-05-01T09:25:03.951Z,100412.11
2023-05-01T09:26:10.585Z,100407.88
2023-05-01T09:27:15.112Z,100419.59
2023-05-01T09:28:18.551Z,100421.30
2023-05-01T09:29:32.905Z,100424.97
2023-05-01T09:30:37.951Z,100421.53
2023-05-01T09:31:41.321Z,100419.03
2023-05-01T09:32:45.941Z,100424.28
2023-05-01T09:33:51.422Z,100424.75
2023-05-01T09:34:55.548Z,100417.50
2023-05-01T09:35:59.286Z,100422.54
2023-05-01T09:37:01.923Z,100419.16
2023-05-01T09:38:08.138Z,100438.83
2023-05-01T09:39:16.359Z,100426.66
2023-05-01T09:40:19.031Z,100430.66
2023-05-01T09:41:23.681Z,100426.15
2023-05-01T09:42:27.040Z,100430.66
2023-05-01T09:43:31.108Z,100428.52
2023-05-01T09:44:36.275Z,100437.89
2023-05-01T09:45:40.813Z,100427.85
2023-05-01T09:46:44.659Z,100438.02
2023-05-01T09:47:48.495Z,100440.95
2023-05-01T09:48:55.652Z,100445.03
2023-05-01T09:49:59.948Z,100448.58
2023-05-01T09:52:16.975Z,100440.31
2023-05-01T09:53:20.645Z,100434.44
2023-05-01T09:54:23.794Z,100436.36
2023-05-01T09:55:27.156Z,100440.89
2023-05-01T09:56:32.099Z,100444.52
2023-05-01T09:57:36.696Z,100446.67
2023-05-01T09:58:41.696Z,100440.14
2023-05-01T09:59:48.646Z,100445.75
2023-05-01T10:00:53.339Z,100439.04
2023-05-01T10:01:57.622Z,100442.83
2023-05-01T10:03:06.580Z,100439.34
2023-05-01T10:04:13.239Z,100447.27
2023-05-01T10:05:17.884Z,100445.12
2023-05-01T10:06:29.138Z,100431.16
2023-05-01T10:07:31.773Z,100435.73
2023-05-01T10:09:50.481Z,100434.05
2023-05-01T10:11:00.602Z,100439.44
2023-05-01T10:12:04.506Z,100447.30
2023-05-01T10:13:15.087Z,100451.28
2023-05-01T10:14:18.316Z,100448.06
2023-05-01T10:15:26.247Z,100438.89
2023-05-01T10:16:28.705Z,100449.88
2023-05-01T10:17:32.785Z,100446.21
2023-05-01T10:18:35.652Z,100447.52
2023-05-01T10:19:39.154Z,100442.53
2023-05-01T10:20:41.704Z,100437.14
2023-05-01T10:21:47.941Z,100445.83
2023-05-01T10:22:51.990Z,100438.16
2023-05-01T10:23:56.097Z,100450.83
2023-05-01T10:24:59.422Z,100459.83
2023-05-01T10:26:05.190Z,100456.06
2023-05-01T10:27:10.706Z,100451.59
2023-05-01T10:28:14.504Z,100454.60
2023-05-01T10:29:19.502Z,100450.03
2023-05-01T10:30:23.397Z,100456.20
2023-05-01T10:31:30.034Z,100450.27
2023-05-01T10:32:34.283Z,100444.13
2023-05-01T10:33:41.011Z,100446.27
2023-05-01T10:34:49.563Z,100462.49
2023-05-01T10:35:57.742Z,100456.15
2023-05-01T10:37:04.709Z,100456.06
2023-05-01T10:38:10.396Z,100457.11
2023-05-01T10:39:26.120Z,100458.88
2023-05-01T10:40:40.087Z,100455.15
2023-05-01T10:41:59.861Z,100455.66
2023-05-01T10:43:13.392Z,100443.40
2023-05-01T10:44:22.715Z,100430.97
2023-05-01T10:45:31.276Z,100450.33
2023-05-01T10:46:36.186Z,100442.25
2023-05-01T10:47:43.534Z,100456.03
2023-05-01T10:48:47.733Z,100457.03
2023-05-01T10:50:04.947Z,100452.12
2023-05-01T10:51:11.884Z,100461.76
2023-05-01T10:52:15.480Z,100455.52
2023-05-01T10:53:20.698Z,100462.56
2023-05-01T10:54:28.153Z,100461.76
2023-05-01T10:55:38.259Z,100473.41
2023-05-01T10:56:42.451Z,100465.04
2023-05-01T10:57:46.598Z,100465.33
2023-05-01T10:58:55.210Z,100461.64
2023-05-01T11:00:03.412Z,100466.82
2023-05-01T11:01:25.085Z,100463.36
2023-05-01T11:02:31.514Z,100470.48
2023-05-01T11:03:35.129Z,100463.14
2023-05-01T11:04:51.287Z,100465.80
2023-05-01T11:06:05.793Z,100461.35
2023-05-01T11:07:16.152Z,100469.20
2023-05-01T11:08:33.472Z,100476.93
2023-05-01T11:09:40.360Z,100461.17
2023-05-01T11:10:43.674Z,100468.39
2023-05-01T11:11:47.924Z,100483.50
2023-05-01T11:12:51.185Z,100470.67
2023-05-01T11:14:01.521Z,100469.68
2023-05-01T11:15:05.795Z,100477.74
2023-05-01T11:16:26.889Z,100483.55
2023-05-01T11:17:44.555Z,100473.03
2023-05-01T11:18:48.762Z,100476.88
2023-05-01T11:19:52.028Z,100475.23
2023-05-01T11:20:58.654Z,100466.36
2023-05-01T11:22:06.665Z,100473.37
2023-05-01T11:23:12.184Z,100466.06
2023-05-01T11:24:15.562Z,100474.34
2023-05-01T11:25:31.792Z,100478.57
2023-05-01T11:26:37.200Z,100476.93
2023-05-01T11:27:40.808Z,100464.33
2023-05-01T11:28:43.895Z,100476.03
2023-05-01T11:29:47.304Z,100472.20
2023-05-01T11:30:50.800Z,100470.36
2023-05-01T11:31:54.310Z,100476.41
2023-05-01T11:32:57.975Z,100466.91
2023-05-01T11:34:03.892Z,100470.41
2023-05-01T11:35:08.485Z,100471.50
2023-05-01T11:36:11.874Z,100473.59
2023-05-01T11:37:14.443Z,100462.98
2023-05-01T11:38:22.008Z,100465.97
2023-05-01T11:39:25.237Z,100462.70
2023-05-01T11:40:30.669Z,100474.87
2023-05-01T11:41:33.992Z,100472.47
2023-05-01T11:42:37.157Z,100466.32
2023-05-01T11:43:58.249Z,100469.34
2023-05-01T11:45:11.694Z,100467.80
2023-05-01T11:46:15.446Z,100462.22
2023-05-01T11:47:18.991Z,100466.71
2023-05-01T11:48:23.125Z,100466.98
2023-05-01T11:49:29.474Z,100482.70
2023-05-01T11:50:33.685Z,100479.08
2023-05-01T11:51:36.722Z,100488.84
2023-05-01T11:52:48.352Z,100477.69
2023-05-01T11:54:04.986Z,100480.61
2023-05-01T11:55:08.076Z,100473.85
2023-05-01T11:56:26.904Z,100479.05
2023-05-01T11:57:29.096Z,100480.47
2023-05-01T11:58:33.867Z,100488.70
2023-05-01T11:59:37.158Z,100485.75
2023-05-01T12:00:41.727Z,100480.64
2023-05-01T12:01:45.982Z,100477.32
2023-05-01T12:04:16.450Z,100479.41
2023-05-01T12:05:20.808Z,100477.03
2023-05-01T12:06:27.138Z,100479.97
2023-05-01T12:07:32.677Z,100482.88
2023-05-01T12:08:35.370Z,100491.39
2023-05-01T12:09:42.303Z,100496.84
2023-05-01T12:10:46.859Z,100487.00
2023-05-01T12:11:53.130Z,100491.08
2023-05-01T12:12:57.004Z,100497.16
2023-05-01T12:14:00.669Z,100489.41
2023-05-01T12:15:04.735Z,100488.67
2023-05-01T12:16:08.458Z,100496.73
2023-05-01T12:17:12.679Z,100493.90
2023-05-01T12:18:18.794Z,100491.08
2023-05-01T12:19:23.936Z,100487.85
2023-05-01T12:20:38.472Z,100487.28
2023-05-01T12:21:43.400Z,100488.70
2023-05-01T12:22:51.003Z,100492.52
2023-05-01T12:23:56.183Z,100489.38
2023-05-01T12:25:01.356Z,100481.20
2023-05-01T12:26:06.521Z,100484.00
2023-05-01T12:27:09.729Z,100473.64
2023-05-01T12:28:20.576Z,100474.49
2023-05-01T12:29:23.940Z,100478.69
2023-05-01T12:30:28.626Z,100483.55
2023-05-01T12:31:32.356Z,100484.57
2023-05-01T12:32:38.277Z,100481.28
2023-05-01T12:33:44.018Z,100489.66
2023-05-01T12:34:48.832Z,100482.13
2023-05-01T12:35:51.546Z,100486.09
2023-05-01T12:36:54.533Z,100478.03
2023-05-01T12:37:57.514Z,100484.31
2023-05-01T12:39:10.000Z,100476.76